aviador You're here:

FAOR Decoded Metar

TAMBO INTL AIRPT in SOUTH AFRICA
Report Time2017-09-23 18:00:00
UTC Time2017-09-23 18:23:56
Flight Rules vfr VFR
Wind090° at 15 kt
W.Rank090° ranks 21
Current wind is above 090° avg. (9.1)
Visibility9999 m
Phenomena:N/A
Clouds:N/A
Expected CloudBase > 2,000 ft AGL from Temp-Dew spread
CeilingNone
Temp14°C (ISA +10)
Dew Point09°C (72% RH)
AAT8.4°C
QNH1027 hPa
Density Alt6,421 ft
Elevation5,550 ft
Report Wrong Elevation
Raw Report
METAR FAOR 231800Z 09015KT 050V110 CAVOK 14/09 Q1027 NOSIG=

Extra information for FAOR:More info

Metar Taf Metar & Taf Last 4 Metars F.Rules Stats Wind Profile Meteogram Temp Stats Airport Information Weather charts Add Link Nearby VenuesMetar ALERT Operation Metar Decoded Social comments